Time;durP1;ratioP1;P1;durP2;ratioP2;P2;SDS_P1;SDS_P2;PMS_P1;PMS_P2;Temp;Humidity;BMP_temperature;BMP_pressure;BME280_temperature;BME280_humidity;BME280_pressure;Samples;Min_cycle;Max_cycle;Signal;HPM_P1;HPM_P2
2023/09/18 00:05:00;;;;;;;7.88;7.15;;;;;;;;;;10369771;28;20037;-62
2023/09/18 00:10:00;;;;;;;8.63;7.03;;;;;;;;;;10365669;28;20033;-62
2023/09/18 00:15:01;;;;;;;9.50;7.72;;;;;;;;;;10358278;28;20466;-61
2023/09/18 00:20:05;;;;;;;8.77;7.80;;;;;;;;;;10348929;28;20026;-61
2023/09/18 00:25:06;;;;;;;9.27;6.70;;;;;;;;;;10368871;28;20057;-62
2023/09/18 00:30:07;;;;;;;7.55;6.28;;;;;;;;;;10347249;28;20401;-61
2023/09/18 00:35:07;;;;;;;8.18;6.82;;;;;;;;;;10348323;28;20030;-62
2023/09/18 00:40:09;;;;;;;15.80;6.80;;;;;;;;;;10367500;28;20377;-62
2023/09/18 00:45:10;;;;;;;7.63;6.82;;;;;;;;;;10349667;28;20033;-62
2023/09/18 00:50:12;;;;;;;8.13;6.80;;;;;;;;;;10366493;28;20033;-62
2023/09/18 00:55:14;;;;;;;11.30;7.65;;;;;;;;;;10368185;28;20080;-62
2023/09/18 01:00:16;;;;;;;7.75;6.95;;;;;;;;;;10351380;28;20038;-62
2023/09/18 01:05:17;;;;;;;10.63;7.45;;;;;;;;;;10343037;28;20023;-61
2023/09/18 01:10:19;;;;;;;9.40;6.43;;;;;;;;;;10331085;28;20125;-61
2023/09/18 01:15:30;;;;;;;9.55;6.82;;;;;;;;;;10344383;28;20273;-61
2023/09/18 01:20:31;;;;;;;8.27;7.20;;;;;;;;;;10343590;28;20444;-61
2023/09/18 01:25:33;;;;;;;8.95;7.13;;;;;;;;;;10365304;28;20030;-62
2023/09/18 01:30:34;;;;;;;8.30;7.38;;;;;;;;;;10365560;28;20757;-61
2023/09/18 01:35:37;;;;;;;8.52;7.18;;;;;;;;;;10353054;28;20033;-62
2023/09/18 01:40:38;;;;;;;9.45;7.57;;;;;;;;;;10342293;28;20034;-61
2023/09/18 01:45:39;;;;;;;8.95;8.05;;;;;;;;;;10354204;28;20057;-61
2023/09/18 01:50:40;;;;;;;12.95;7.70;;;;;;;;;;10357403;28;20402;-61
2023/09/18 01:55:41;;;;;;;11.82;8.23;;;;;;;;;;10364936;28;20026;-61
2023/09/18 02:00:42;;;;;;;9.45;8.07;;;;;;;;;;10365920;28;20394;-62
2023/09/18 02:05:42;;;;;;;11.00;8.93;;;;;;;;;;10355644;28;20096;-61
2023/09/18 02:10:43;;;;;;;11.02;8.90;;;;;;;;;;10348654;28;20029;-61
2023/09/18 02:15:44;;;;;;;10.90;8.82;;;;;;;;;;10365110;28;20676;-61
2023/09/18 02:20:48;;;;;;;9.23;8.30;;;;;;;;;;10353181;28;20049;-62
2023/09/18 02:25:57;;;;;;;8.82;7.65;;;;;;;;;;10363290;28;20180;-61
2023/09/18 02:30:57;;;;;;;10.05;8.65;;;;;;;;;;10341058;28;20504;-62
2023/09/18 02:35:58;;;;;;;16.88;9.63;;;;;;;;;;10353599;28;20041;-62
2023/09/18 02:40:59;;;;;;;11.40;9.63;;;;;;;;;;10353523;28;20054;-62
2023/09/18 02:46:00;;;;;;;13.40;10.07;;;;;;;;;;10363924;28;20138;-62
2023/09/18 02:51:02;;;;;;;10.90;9.80;;;;;;;;;;10361743;28;20040;-62
2023/09/18 02:56:02;;;;;;;10.98;9.82;;;;;;;;;;10340398;28;20118;-61
2023/09/18 03:01:05;;;;;;;13.43;10.85;;;;;;;;;;10339175;28;20133;-61
2023/09/18 03:06:06;;;;;;;13.70;10.25;;;;;;;;;;10363995;28;20269;-61
2023/09/18 03:11:14;;;;;;;12.75;10.55;;;;;;;;;;10353591;28;20038;-62
2023/09/18 03:16:15;;;;;;;15.52;9.82;;;;;;;;;;10327374;28;20034;-62
2023/09/18 03:21:15;;;;;;;14.02;10.50;;;;;;;;;;10351367;28;20478;-62
2023/09/18 03:26:16;;;;;;;11.77;9.05;;;;;;;;;;10346508;28;20022;-63
2023/09/18 03:31:16;;;;;;;13.20;9.25;;;;;;;;;;10339339;28;20076;-60
2023/09/18 03:36:20;;;;;;;14.30;10.02;;;;;;;;;;10336643;28;20615;-60
2023/09/18 03:41:21;;;;;;;14.52;10.05;;;;;;;;;;10356558;28;20048;-60
2023/09/18 03:46:21;;;;;;;14.40;10.70;;;;;;;;;;10364941;28;20057;-61
2023/09/18 03:51:22;;;;;;;11.23;10.02;;;;;;;;;;10347509;28;20038;-61
2023/09/18 03:56:22;;;;;;;14.65;10.00;;;;;;;;;;10356152;28;20038;-61
2023/09/18 04:01:23;;;;;;;12.75;9.35;;;;;;;;;;10343571;28;20041;-61
2023/09/18 04:06:24;;;;;;;11.70;9.52;;;;;;;;;;10335790;28;20104;-61
2023/09/18 04:11:26;;;;;;;11.93;9.32;;;;;;;;;;10344779;28;20529;-62
2023/09/18 04:16:27;;;;;;;9.55;8.48;;;;;;;;;;10358532;28;20426;-62
2023/09/18 04:21:29;;;;;;;10.88;8.35;;;;;;;;;;10345503;28;20470;-62
2023/09/18 04:26:30;;;;;;;10.05;8.50;;;;;;;;;;10353893;28;20156;-63
2023/09/18 04:31:31;;;;;;;13.93;9.40;;;;;;;;;;10335199;28;20225;-62
2023/09/18 04:36:32;;;;;;;15.07;9.75;;;;;;;;;;10332492;28;20026;-63
2023/09/18 04:41:33;;;;;;;12.32;9.35;;;;;;;;;;10339877;28;20030;-62
2023/09/18 04:46:37;;;;;;;11.38;8.75;;;;;;;;;;10349517;28;20042;-60
2023/09/18 04:51:39;;;;;;;9.40;7.82;;;;;;;;;;10343094;28;20408;-60
2023/09/18 04:56:39;;;;;;;15.73;7.72;;;;;;;;;;10347367;28;20026;-60
2023/09/18 05:01:40;;;;;;;14.32;8.25;;;;;;;;;;10346692;28;20030;-60
2023/09/18 05:06:41;;;;;;;8.40;7.50;;;;;;;;;;10352144;28;20022;-59
2023/09/18 05:11:42;;;;;;;7.28;6.55;;;;;;;;;;10345593;28;20041;-59
2023/09/18 05:16:43;;;;;;;8.00;6.72;;;;;;;;;;10345903;28;20351;-60
2023/09/18 05:21:43;;;;;;;7.22;6.32;;;;;;;;;;10344295;28;20030;-59
2023/09/18 05:26:44;;;;;;;9.95;6.20;;;;;;;;;;10346884;28;20034;-60
2023/09/18 05:31:45;;;;;;;8.88;5.90;;;;;;;;;;10343580;28;20038;-60
2023/09/18 05:36:46;;;;;;;8.90;5.60;;;;;;;;;;10341537;28;20517;-60
2023/09/18 05:41:47;;;;;;;9.23;5.53;;;;;;;;;;10348652;28;20072;-60
2023/09/18 05:46:47;;;;;;;13.00;5.25;;;;;;;;;;10341942;28;20049;-60
2023/09/18 05:51:48;;;;;;;4.85;4.38;;;;;;;;;;10339397;28;20124;-60
2023/09/18 05:56:49;;;;;;;8.30;4.22;;;;;;;;;;10343285;28;20030;-60
2023/09/18 06:01:49;;;;;;;11.00;4.55;;;;;;;;;;10353230;28;20399;-60
2023/09/18 06:06:51;;;;;;;5.43;4.68;;;;;;;;;;10351673;28;20045;-60
2023/09/18 06:11:52;;;;;;;7.22;4.40;;;;;;;;;;10360434;28;20049;-59
2023/09/18 06:16:53;;;;;;;10.80;4.55;;;;;;;;;;10341738;28;20033;-60
2023/09/18 06:21:53;;;;;;;10.07;4.68;;;;;;;;;;10355978;28;20026;-60
2023/09/18 06:26:54;;;;;;;12.10;4.40;;;;;;;;;;10359080;28;20195;-60
2023/09/18 06:31:55;;;;;;;9.57;4.35;;;;;;;;;;10363831;28;20041;-61
2023/09/18 06:36:55;;;;;;;8.77;4.22;;;;;;;;;;10356451;28;20036;-61
2023/09/18 06:41:56;;;;;;;8.27;4.53;;;;;;;;;;10341262;28;20026;-61
2023/09/18 06:46:56;;;;;;;4.25;3.88;;;;;;;;;;10340322;28;20101;-61
2023/09/18 06:51:58;;;;;;;9.27;4.25;;;;;;;;;;10359436;28;20042;-62
2023/09/18 06:56:58;;;;;;;9.38;3.72;;;;;;;;;;10363546;28;20083;-60
2023/09/18 07:02:01;;;;;;;11.38;4.20;;;;;;;;;;10335385;28;20026;-60
2023/09/18 07:07:01;;;;;;;8.82;4.57;;;;;;;;;;10339482;28;20038;-60
2023/09/18 07:12:02;;;;;;;8.85;4.70;;;;;;;;;;10352530;28;20052;-60
2023/09/18 07:17:03;;;;;;;14.77;4.80;;;;;;;;;;10357998;28;20116;-60
2023/09/18 07:22:04;;;;;;;11.45;4.78;;;;;;;;;;10359741;28;20029;-60
2023/09/18 07:27:05;;;;;;;6.70;4.68;;;;;;;;;;10371066;28;20425;-61
2023/09/18 07:32:05;;;;;;;8.40;4.70;;;;;;;;;;10370510;28;20105;-61
2023/09/18 07:37:06;;;;;;;13.43;4.43;;;;;;;;;;10359505;28;20091;-61
2023/09/18 07:42:06;;;;;;;8.93;5.35;;;;;;;;;;10369944;28;20026;-60
2023/09/18 07:47:07;;;;;;;10.48;4.63;;;;;;;;;;10358946;28;20046;-60
2023/09/18 07:52:08;;;;;;;9.18;4.40;;;;;;;;;;10347505;28;20047;-60
2023/09/18 07:57:09;;;;;;;7.22;4.60;;;;;;;;;;10355482;28;20124;-61
2023/09/18 08:02:10;;;;;;;12.80;4.70;;;;;;;;;;10357220;28;20577;-60
2023/09/18 08:07:12;;;;;;;5.57;4.38;;;;;;;;;;10350256;28;20026;-60
2023/09/18 08:12:12;;;;;;;14.80;4.60;;;;;;;;;;10352818;28;20033;-60
2023/09/18 08:17:13;;;;;;;9.90;4.60;;;;;;;;;;10368886;28;20389;-60
2023/09/18 08:22:16;;;;;;;15.32;4.93;;;;;;;;;;10367138;28;20409;-60
2023/09/18 08:27:17;;;;;;;10.38;4.82;;;;;;;;;;10368471;28;20100;-60
2023/09/18 08:32:17;;;;;;;9.80;4.70;;;;;;;;;;10368584;28;20104;-61
2023/09/18 08:37:18;;;;;;;8.13;4.90;;;;;;;;;;10343702;28;20026;-62
2023/09/18 08:42:21;;;;;;;9.13;4.85;;;;;;;;;;10344291;28;20045;-60
2023/09/18 08:47:22;;;;;;;8.77;5.05;;;;;;;;;;10368056;28;20037;-60
2023/09/18 08:52:23;;;;;;;9.43;5.10;;;;;;;;;;10355223;28;20124;-60
2023/09/18 08:57:25;;;;;;;6.70;5.00;;;;;;;;;;10330558;28;20041;-60
2023/09/18 09:02:26;;;;;;;8.25;5.55;;;;;;;;;;10332329;28;20521;-60
2023/09/18 09:07:30;;;;;;;9.60;5.43;;;;;;;;;;10344867;28;20033;-60
2023/09/18 09:12:51;;;;;;;8.27;5.30;;;;;;;;;;10352273;28;20381;-60
2023/09/18 09:18:02;;;;;;;6.75;4.93;;;;;;;;;;10343306;28;20163;-60
2023/09/18 09:23:09;;;;;;;10.52;5.47;;;;;;;;;;10343565;28;20076;-60
2023/09/18 09:28:09;;;;;;;8.98;4.93;;;;;;;;;;10349084;28;20034;-60
2023/09/18 09:33:12;;;;;;;12.25;6.00;;;;;;;;;;10354005;28;20065;-60
2023/09/18 09:38:16;;;;;;;7.18;5.97;;;;;;;;;;10352723;28;20022;-60
2023/09/18 09:43:18;;;;;;;7.18;5.60;;;;;;;;;;10352968;28;20040;-61
2023/09/18 09:48:19;;;;;;;9.77;5.55;;;;;;;;;;10340620;28;20104;-60
2023/09/18 09:53:39;;;;;;;10.40;6.10;;;;;;;;;;10346940;28;20410;-61
2023/09/18 09:58:44;;;;;;;8.10;6.20;;;;;;;;;;10336933;28;20025;-60
2023/09/18 10:03:46;;;;;;;11.57;5.93;;;;;;;;;;10357846;28;20042;-61
2023/09/18 10:08:47;;;;;;;9.00;6.22;;;;;;;;;;10346878;28;20077;-60
2023/09/18 10:14:07;;;;;;;8.38;5.78;;;;;;;;;;10353364;28;20496;-62
2023/09/18 10:19:39;;;;;;;7.70;6.00;;;;;;;;;;10363867;28;20017;-61
2023/09/18 10:24:43;;;;;;;10.73;6.38;;;;;;;;;;10350460;28;20497;-60
2023/09/18 10:29:48;;;;;;;8.10;5.80;;;;;;;;;;10352404;28;20105;-61
2023/09/18 10:34:50;;;;;;;8.95;6.32;;;;;;;;;;10352028;28;20100;-60
2023/09/18 10:39:53;;;;;;;7.78;6.38;;;;;;;;;;10344882;28;20038;-60
2023/09/18 10:44:54;;;;;;;10.52;6.50;;;;;;;;;;10351245;28;20254;-60
2023/09/18 10:49:54;;;;;;;9.70;6.63;;;;;;;;;;10345559;28;20026;-60
2023/09/18 10:54:55;;;;;;;12.00;7.57;;;;;;;;;;10352492;28;20062;-60
2023/09/18 10:59:57;;;;;;;11.27;6.60;;;;;;;;;;10350323;28;20028;-61
2023/09/18 11:04:58;;;;;;;9.25;6.78;;;;;;;;;;10350398;28;20022;-60
2023/09/18 11:09:59;;;;;;;11.65;6.90;;;;;;;;;;10348660;28;20031;-61
2023/09/18 11:15:00;;;;;;;7.65;6.30;;;;;;;;;;10330626;28;20467;-60
2023/09/18 11:20:25;;;;;;;9.18;6.68;;;;;;;;;;10350354;28;20031;-61
2023/09/18 11:25:41;;;;;;;10.10;6.13;;;;;;;;;;10358150;28;20038;-61
2023/09/18 11:30:58;;;;;;;7.70;6.32;;;;;;;;;;10343752;28;20056;-60
2023/09/18 11:36:14;;;;;;;12.63;6.27;;;;;;;;;;10350599;28;20505;-60
2023/09/18 11:41:25;;;;;;;11.13;6.85;;;;;;;;;;10349733;28;20077;-60
2023/09/18 11:46:29;;;;;;;8.38;6.60;;;;;;;;;;10344280;28;20529;-60
2023/09/18 11:51:30;;;;;;;10.32;6.60;;;;;;;;;;10342001;28;20389;-60
2023/09/18 11:56:33;;;;;;;10.05;6.57;;;;;;;;;;10351166;28;20054;-61
2023/09/18 12:01:35;;;;;;;11.63;6.80;;;;;;;;;;10357516;28;21047;-60
2023/09/18 12:06:38;;;;;;;11.05;7.50;;;;;;;;;;10357113;28;20031;-60
2023/09/18 12:11:42;;;;;;;15.63;7.32;;;;;;;;;;10360288;28;20050;-60
2023/09/18 12:16:43;;;;;;;11.93;7.85;;;;;;;;;;10364497;28;20042;-60
2023/09/18 12:21:49;;;;;;;9.30;7.07;;;;;;;;;;10354977;28;20450;-60
2023/09/18 12:26:51;;;;;;;14.15;6.88;;;;;;;;;;10362506;28;20038;-60
2023/09/18 12:31:52;;;;;;;11.77;7.50;;;;;;;;;;10344409;28;20034;-60
2023/09/18 12:36:53;;;;;;;18.85;8.57;;;;;;;;;;10340472;28;20042;-60
2023/09/18 12:41:53;;;;;;;20.83;7.88;;;;;;;;;;10335141;28;20038;-60
2023/09/18 12:46:54;;;;;;;14.57;7.45;;;;;;;;;;10339331;28;20051;-60
2023/09/18 12:52:00;;;;;;;19.20;8.75;;;;;;;;;;10342940;28;20044;-60
2023/09/18 12:57:00;;;;;;;17.23;8.45;;;;;;;;;;10356440;28;20493;-60
2023/09/18 13:02:05;;;;;;;17.02;7.70;;;;;;;;;;10347627;28;20054;-61
2023/09/18 13:07:15;;;;;;;21.73;7.88;;;;;;;;;;10353671;28;20431;-61
2023/09/18 13:12:15;;;;;;;16.20;7.25;;;;;;;;;;10358745;28;20033;-60
2023/09/18 13:17:16;;;;;;;18.65;7.80;;;;;;;;;;10350032;28;20038;-61
2023/09/18 13:22:26;;;;;;;12.60;7.60;;;;;;;;;;10346160;28;20034;-61
2023/09/18 13:27:26;;;;;;;15.93;7.35;;;;;;;;;;10349234;28;20037;-60
2023/09/18 13:32:27;;;;;;;16.35;6.78;;;;;;;;;;10346644;28;20030;-60
2023/09/18 13:37:29;;;;;;;15.90;6.72;;;;;;;;;;10343168;28;20034;-61
2023/09/18 13:42:30;;;;;;;13.95;7.65;;;;;;;;;;10331858;28;20485;-62
2023/09/18 13:47:30;;;;;;;17.67;7.35;;;;;;;;;;10329473;28;20502;-60
2023/09/18 13:52:33;;;;;;;12.57;7.70;;;;;;;;;;10333956;28;20038;-60
2023/09/18 13:57:35;;;;;;;14.68;7.35;;;;;;;;;;10333405;28;20509;-60
2023/09/18 14:02:35;;;;;;;10.18;6.60;;;;;;;;;;10349717;28;20064;-60
2023/09/18 14:07:40;;;;;;;14.35;7.28;;;;;;;;;;10329982;28;20417;-60
2023/09/18 14:12:43;;;;;;;17.45;7.00;;;;;;;;;;10342130;28;20030;-60
2023/09/18 14:17:43;;;;;;;19.92;7.15;;;;;;;;;;10337510;28;20108;-60
2023/09/18 14:22:44;;;;;;;12.85;7.68;;;;;;;;;;10347355;28;20029;-61
2023/09/18 14:27:45;;;;;;;12.70;6.43;;;;;;;;;;10339473;28;20033;-60
2023/09/18 14:32:46;;;;;;;9.13;6.90;;;;;;;;;;10348625;28;20034;-61
2023/09/18 14:37:46;;;;;;;14.55;7.13;;;;;;;;;;10336760;28;20022;-60
2023/09/18 14:42:47;;;;;;;11.50;6.90;;;;;;;;;;10364601;28;20056;-60
2023/09/18 14:47:48;;;;;;;13.00;7.30;;;;;;;;;;10348578;28;20054;-61
2023/09/18 14:52:49;;;;;;;12.27;6.20;;;;;;;;;;10339730;28;20035;-61
2023/09/18 14:57:49;;;;;;;17.27;7.15;;;;;;;;;;10341850;28;20030;-60
2023/09/18 15:02:50;;;;;;;11.95;7.55;;;;;;;;;;10361907;28;20536;-61
2023/09/18 15:07:51;;;;;;;10.90;6.78;;;;;;;;;;10363375;28;20026;-61
2023/09/18 15:12:52;;;;;;;12.52;6.95;;;;;;;;;;10350664;28;20065;-61
2023/09/18 15:17:52;;;;;;;14.70;6.78;;;;;;;;;;10340420;28;20026;-60
2023/09/18 15:22:55;;;;;;;11.48;6.28;;;;;;;;;;10362761;28;20026;-60
2023/09/18 15:27:56;;;;;;;13.73;6.88;;;;;;;;;;10344949;28;20029;-61
2023/09/18 15:32:56;;;;;;;9.43;6.70;;;;;;;;;;10357849;28;20389;-61
2023/09/18 15:37:57;;;;;;;10.32;6.60;;;;;;;;;;10345926;28;20018;-61
2023/09/18 15:42:58;;;;;;;12.25;6.63;;;;;;;;;;10371078;28;20049;-61
2023/09/18 15:47:58;;;;;;;7.82;5.88;;;;;;;;;;10370134;28;20389;-60
2023/09/18 15:52:59;;;;;;;11.88;6.68;;;;;;;;;;10354864;28;20038;-61
2023/09/18 15:58:00;;;;;;;11.23;6.80;;;;;;;;;;10347863;28;20026;-60
2023/09/18 16:03:01;;;;;;;8.35;6.63;;;;;;;;;;10345740;28;20036;-60
2023/09/18 16:08:04;;;;;;;9.20;6.35;;;;;;;;;;10357420;28;20033;-60
2023/09/18 16:13:05;;;;;;;10.82;7.13;;;;;;;;;;10345521;28;20026;-61
2023/09/18 16:18:05;;;;;;;6.25;5.68;;;;;;;;;;10357210;28;20026;-61
2023/09/18 16:23:06;;;;;;;8.25;6.22;;;;;;;;;;10369777;28;20049;-61
2023/09/18 16:28:06;;;;;;;11.57;6.10;;;;;;;;;;10367597;28;20026;-60
2023/09/18 16:33:07;;;;;;;8.80;6.30;;;;;;;;;;10355499;28;20490;-61
2023/09/18 16:38:08;;;;;;;8.90;6.32;;;;;;;;;;10348744;28;20254;-60
2023/09/18 16:43:10;;;;;;;7.78;5.85;;;;;;;;;;10339446;28;20485;-59
2023/09/18 16:48:11;;;;;;;13.57;7.35;;;;;;;;;;10338642;28;20034;-61
2023/09/18 16:53:11;;;;;;;16.38;6.70;;;;;;;;;;10346967;28;20034;-62
2023/09/18 16:58:12;;;;;;;8.13;6.13;;;;;;;;;;10334752;28;20034;-62
2023/09/18 17:03:13;;;;;;;13.68;6.97;;;;;;;;;;10350315;28;20037;-61
2023/09/18 17:08:13;;;;;;;8.25;6.60;;;;;;;;;;10348989;28;20058;-61
2023/09/18 17:13:14;;;;;;;11.02;6.68;;;;;;;;;;10328895;28;20061;-61
2023/09/18 17:18:15;;;;;;;11.60;6.20;;;;;;;;;;10352668;28;20084;-62
2023/09/18 17:23:16;;;;;;;8.95;7.10;;;;;;;;;;10341983;28;20030;-61
2023/09/18 17:28:16;;;;;;;10.57;7.78;;;;;;;;;;10363732;28;20022;-61
2023/09/18 17:33:17;;;;;;;13.05;8.20;;;;;;;;;;10347214;28;20560;-61
2023/09/18 17:38:18;;;;;;;16.30;8.20;;;;;;;;;;10349977;28;20397;-61
2023/09/18 17:43:18;;;;;;;15.45;9.48;;;;;;;;;;10352554;28;20593;-61
2023/09/18 17:48:19;;;;;;;16.50;9.07;;;;;;;;;;10358269;28;20502;-61
2023/09/18 17:53:20;;;;;;;15.52;8.98;;;;;;;;;;10346454;28;20029;-62
2023/09/18 17:58:21;;;;;;;14.65;8.68;;;;;;;;;;10349808;28;20491;-61
2023/09/18 18:03:21;;;;;;;13.35;9.02;;;;;;;;;;10345194;28;20026;-61
2023/09/18 18:08:22;;;;;;;16.20;8.88;;;;;;;;;;10346741;28;20030;-61
2023/09/18 18:13:23;;;;;;;15.77;8.77;;;;;;;;;;10354342;28;20177;-60
2023/09/18 18:18:23;;;;;;;19.05;8.13;;;;;;;;;;10342541;28;20027;-61
2023/09/18 18:23:24;;;;;;;11.10;8.13;;;;;;;;;;10345760;28;20529;-61
2023/09/18 18:28:25;;;;;;;14.25;7.60;;;;;;;;;;10337845;28;20555;-60
2023/09/18 18:33:25;;;;;;;13.90;8.05;;;;;;;;;;10339400;28;20160;-60
2023/09/18 18:38:26;;;;;;;8.65;7.07;;;;;;;;;;10341796;28;20821;-61
2023/09/18 18:43:27;;;;;;;11.38;6.60;;;;;;;;;;10347150;28;20026;-61
2023/09/18 18:48:27;;;;;;;8.65;6.25;;;;;;;;;;10335342;28;20050;-60
2023/09/18 18:53:29;;;;;;;6.60;5.88;;;;;;;;;;10342701;28;20053;-61
2023/09/18 18:58:31;;;;;;;8.05;6.05;;;;;;;;;;10346962;28;20038;-61
2023/09/18 19:03:34;;;;;;;6.72;5.68;;;;;;;;;;10334720;28;20370;-60
2023/09/18 19:08:36;;;;;;;12.73;5.93;;;;;;;;;;10352801;28;20053;-61
2023/09/18 19:13:42;;;;;;;9.10;5.43;;;;;;;;;;10348585;28;20391;-61
2023/09/18 19:18:42;;;;;;;8.35;5.85;;;;;;;;;;10348576;28;20682;-60
2023/09/18 19:23:43;;;;;;;8.07;5.22;;;;;;;;;;10350296;28;20018;-59
2023/09/18 19:28:45;;;;;;;8.20;5.05;;;;;;;;;;10336090;28;20030;-60
2023/09/18 19:33:45;;;;;;;10.57;5.18;;;;;;;;;;10340426;28;20045;-59
2023/09/18 19:38:46;;;;;;;8.77;5.20;;;;;;;;;;10340131;28;20041;-59
2023/09/18 19:43:47;;;;;;;8.00;5.15;;;;;;;;;;10337078;28;20031;-58
2023/09/18 19:48:47;;;;;;;7.65;5.40;;;;;;;;;;10336906;28;20038;-59
2023/09/18 19:53:48;;;;;;;9.63;4.72;;;;;;;;;;10343067;28;20031;-60
2023/09/18 19:58:48;;;;;;;9.48;4.90;;;;;;;;;;10349725;28;20091;-61
2023/09/18 20:03:49;;;;;;;7.57;4.50;;;;;;;;;;10336281;28;20026;-59
2023/09/18 20:08:50;;;;;;;7.97;4.90;;;;;;;;;;10353563;28;20029;-61
2023/09/18 20:13:51;;;;;;;11.70;5.28;;;;;;;;;;10352310;28;20482;-59
2023/09/18 20:18:52;;;;;;;15.27;6.18;;;;;;;;;;10358607;28;20022;-59
2023/09/18 20:23:53;;;;;;;9.90;5.85;;;;;;;;;;10361050;28;20069;-59
2023/09/18 20:28:53;;;;;;;8.75;5.18;;;;;;;;;;10356343;28;20026;-59
2023/09/18 20:33:54;;;;;;;12.40;5.20;;;;;;;;;;10362271;28;20034;-59
2023/09/18 20:38:55;;;;;;;9.88;5.55;;;;;;;;;;10366957;28;20037;-59
2023/09/18 20:43:55;;;;;;;15.65;7.03;;;;;;;;;;10355115;28;20033;-60
2023/09/18 20:48:56;;;;;;;8.50;6.05;;;;;;;;;;10367424;28;20390;-59
2023/09/18 20:53:59;;;;;;;12.40;5.15;;;;;;;;;;10367437;28;20022;-59
2023/09/18 20:59:02;;;;;;;11.43;4.60;;;;;;;;;;10366412;28;20057;-59
2023/09/18 21:04:03;;;;;;;13.90;4.30;;;;;;;;;;10365272;28;20261;-59
2023/09/18 21:09:06;;;;;;;8.45;3.90;;;;;;;;;;10342041;28;20036;-59
2023/09/18 21:14:07;;;;;;;10.77;4.20;;;;;;;;;;10338555;28;20034;-59
2023/09/18 21:19:08;;;;;;;11.27;4.43;;;;;;;;;;10339223;28;20069;-59
2023/09/18 21:24:09;;;;;;;15.07;4.07;;;;;;;;;;10345577;28;20031;-59
2023/09/18 21:29:10;;;;;;;9.95;3.70;;;;;;;;;;10342063;28;20033;-59
2023/09/18 21:34:11;;;;;;;9.30;4.00;;;;;;;;;;10334641;28;20064;-59
2023/09/18 21:39:11;;;;;;;7.60;3.45;;;;;;;;;;10337930;28;20026;-59
2023/09/18 21:44:12;;;;;;;7.75;3.25;;;;;;;;;;10339967;28;20033;-59
2023/09/18 21:49:14;;;;;;;5.13;2.75;;;;;;;;;;10359595;28;20048;-58
2023/09/18 21:54:14;;;;;;;8.52;3.22;;;;;;;;;;10346446;28;20045;-60
2023/09/18 21:59:15;;;;;;;7.15;2.90;;;;;;;;;;10326632;28;20042;-59
2023/09/18 22:04:17;;;;;;;8.52;3.00;;;;;;;;;;10328666;28;20053;-61
2023/09/18 22:09:19;;;;;;;8.52;3.17;;;;;;;;;;10336188;28;20078;-59
2023/09/18 22:14:21;;;;;;;7.28;3.22;;;;;;;;;;10329824;28;20031;-60
2023/09/18 22:19:22;;;;;;;7.20;2.97;;;;;;;;;;10337528;28;20023;-60
2023/09/18 22:24:24;;;;;;;10.63;3.35;;;;;;;;;;10334817;28;20040;-59
2023/09/18 22:29:25;;;;;;;15.57;3.28;;;;;;;;;;10333725;28;20042;-59
2023/09/18 22:34:27;;;;;;;6.70;3.50;;;;;;;;;;10334161;28;20097;-60
2023/09/18 22:39:58;;;;;;;10.65;3.28;;;;;;;;;;10343241;28;20560;-59
2023/09/18 22:45:55;;;;;;;11.70;3.05;;;;;;;;;;10326709;28;20042;-59
2023/09/18 22:51:52;;;;;;;7.80;3.40;;;;;;;;;;10340803;28;20034;-59
2023/09/18 22:56:53;;;;;;;7.88;3.17;;;;;;;;;;10344735;28;20545;-59
2023/09/18 23:01:54;;;;;;;10.70;3.30;;;;;;;;;;10351078;28;20127;-59
2023/09/18 23:06:58;;;;;;;4.50;3.10;;;;;;;;;;10326637;28;20029;-59
2023/09/18 23:11:58;;;;;;;6.32;3.03;;;;;;;;;;10327644;28;20465;-59
2023/09/18 23:17:09;;;;;;;10.65;3.08;;;;;;;;;;10352079;28;20029;-58
2023/09/18 23:22:11;;;;;;;7.35;3.20;;;;;;;;;;10343792;28;20457;-59
2023/09/18 23:27:12;;;;;;;8.82;3.65;;;;;;;;;;10358288;28;20539;-60
2023/09/18 23:32:13;;;;;;;8.52;3.17;;;;;;;;;;10353125;28;20065;-60
2023/09/18 23:37:13;;;;;;;5.68;3.40;;;;;;;;;;10359742;28;20037;-60
2023/09/18 23:42:14;;;;;;;6.03;3.15;;;;;;;;;;10333728;28;20472;-60
2023/09/18 23:47:15;;;;;;;10.40;4.22;;;;;;;;;;10338589;28;20043;-60
2023/09/18 23:52:16;;;;;;;12.50;3.60;;;;;;;;;;10357620;28;20025;-59
2023/09/18 23:57:20;;;;;;;3.95;3.05;;;;;;;;;;10342625;28;20034;-60
